Broxton, GA (31519)

10:44 AM EDT on September 22, 2014 (GMT -0400)
Douglas Golf Club Area | Change Station
CLOSE
Current Station
Personal Weather Station
Location: Douglas, GA
Elevation: 224 ft
Nearby Weather Stations

Elev 224 ft 31.52 °N, 82.84 °W | Updated 2 minutes ago

Clear
Clear
77.9 °F
Feels Like 80 °F
N
0.9
Wind Variable Wind from WNW
Gusts 4.0 mph

Today
High -- | Low -- °F
--% Chance of Precip.
Yesterday
High -- | Low -- °F
Precip. -- in
7:19 AM 7:28 PM
Waning Crescent, 3% visible
Pressure 30.06 in
Visibility 10.0 miles
Clouds Clear
Heat Index 80 °F
Dew Point 67 °F
Humidity 70%
Rainfall 0.00 in
Snow Depth Not available.
UV 5 out of 12
Pollen 7.40 out of 12
Air Quality Not available.
Flu Activity Not available.
METAR KDQH 221435Z AUTO 26005KT 10SM CLR 28/18 A3006 RMK AO2

More Conditions Fewer Conditions

Pressure 30.06 in
Visibility 10.0 miles
Clouds Clear
Heat Index 80 °F
Dew Point 67 °F
Humidity 70%
Rainfall 0.00 in
Snow Depth Not available.
UV 5 out of 12
Pollen 7.40 out of 12
Air Quality Not available.
Flu Activity Not available.
METAR KDQH 221435Z AUTO 26005KT 10SM CLR 28/18 A3006 RMK AO2

More Conditions Fewer Conditions

10-Day Weather Forecast

Almanac

Astronomy

Sep. 22, 2014 Rise Set
Actual Time 7:19 AM EDT 7:28 PM EDT
Civil Twilight 6:55 AM EDT 7:52 PM EDT
Nautical Twilight 6:27 AM EDT 8:20 PM EDT
Astronomical Twilight 5:58 AM EDT 8:49 PM EDT
Moon 5:51 AM EDT 6:32 PM EDT
Length of Visible Light 12h 56m
Length of Day
12h 08m
Tomorrow will be 1m 55s shorter.
Waning Crescent, 3% of the Moon is Illuminated
Today
Waning Crescent
Sep 24
New
Oct 1
First Quarter
Oct 8
Full
Oct 15
Last Quarter

Today's Extremes

State Highs State Lows

Community

WunderPhotos

Upload Photos

1,755,459 photos uploaded!

WunderBlogs® & News

By Dr. Jeff Masters
Director of Meteorology, Weather Underground
By Kari Strenfel
Meteorologist, Weather Underground
By Christopher C. Burt
Weather Historian, Weather Underground
September 22, 2014
September 22, 2014
September 22, 2014

Nearby

Snow Depth

Station Depth Elevation
No new snow has been reported.

Earthquake Activity

City Distance Mag. Time & Date
New Ellenton, South Carolina 143 miles 2.6 4:38 PM EDT
2014-09-19
Minimum magnitude displayed is 2.5.

Coastal Water Temperatures

Place Temperature
No Stations Reporting

Nearby Weather Stations